Baingoin, China
Current Conditions -  °F | °C
As of 5:50 PM on Saturday 22 Nov 2014 (Local Time) from VNKT Reporting Station
Few Clouds Few Clouds  
Wind Chill: 66°   Ceiling: Unl
Heat Index: 66°   Visibility: 4mi
Dew Point: 52°   Wind: 7mph
Humidity: 60%   Direction: 250°WSW
Pressure: 29.97"   Gusts: NA
Location:  31.37°N, 90.02°E
Report Text: VNKT 220950Z 25006KT 6000 FEW025 19/11 Q1015 NOSIG
Loading
Personal Weather Stations






























Interactive Weather Map New forecast layout! Learn more

10-Day Weather Forecast

Advertisements
Track Severe Weather on mobile